sensor_id;sensor_type;location;lat;lon;timestamp;temperature;humidity
26051;DHT22;13825;53.496;10.020;2023-03-14T00:02:26;10.20;99.90
26051;DHT22;13825;53.496;10.020;2023-03-14T00:04:54;10.20;99.90
26051;DHT22;13825;53.496;10.020;2023-03-14T00:07:22;10.20;99.90
26051;DHT22;13825;53.496;10.020;2023-03-14T00:09:50;10.10;99.90
26051;DHT22;13825;53.496;10.020;2023-03-14T00:12:18;10.00;1.00
26051;DHT22;13825;53.496;10.020;2023-03-14T00:14:45;10.00;99.90
26051;DHT22;13825;53.496;10.020;2023-03-14T00:17:12;10.10;99.90
26051;DHT22;13825;53.496;10.020;2023-03-14T00:19:39;10.00;1.00
26051;DHT22;13825;53.496;10.020;2023-03-14T00:22:06;10.10;99.90
26051;DHT22;13825;53.496;10.020;2023-03-14T00:24:34;10.10;99.90
26051;DHT22;13825;53.496;10.020;2023-03-14T00:27:01;10.10;99.90
26051;DHT22;13825;53.496;10.020;2023-03-14T00:29:29;10.20;99.90
26051;DHT22;13825;53.496;10.020;2023-03-14T00:31:56;10.20;99.90
26051;DHT22;13825;53.496;10.020;2023-03-14T00:34:28;10.20;99.90
26051;DHT22;13825;53.496;10.020;2023-03-14T00:36:55;10.20;99.90
26051;DHT22;13825;53.496;10.020;2023-03-14T00:39:22;10.10;99.90
26051;DHT22;13825;53.496;10.020;2023-03-14T00:41:49;10.10;99.90
26051;DHT22;13825;53.496;10.020;2023-03-14T00:44:16;10.10;99.90
26051;DHT22;13825;53.496;10.020;2023-03-14T00:46:45;10.10;99.90
26051;DHT22;13825;53.496;10.020;2023-03-14T00:49:12;10.00;99.90
26051;DHT22;13825;53.496;10.020;2023-03-14T00:51:39;10.00;99.90
26051;DHT22;13825;53.496;10.020;2023-03-14T00:54:05;10.00;99.90
26051;DHT22;13825;53.496;10.020;2023-03-14T00:56:32;9.90;99.90
26051;DHT22;13825;53.496;10.020;2023-03-14T00:58:59;9.90;99.90
26051;DHT22;13825;53.496;10.020;2023-03-14T01:01:26;9.90;1.00
26051;DHT22;13825;53.496;10.020;2023-03-14T01:03:55;9.90;1.00
26051;DHT22;13825;53.496;10.020;2023-03-14T01:06:25;9.90;1.00
26051;DHT22;13825;53.496;10.020;2023-03-14T01:08:53;9.90;1.00
26051;DHT22;13825;53.496;10.020;2023-03-14T01:11:23;9.90;99.90
26051;DHT22;13825;53.496;10.020;2023-03-14T01:13:50;9.90;1.00
26051;DHT22;13825;53.496;10.020;2023-03-14T01:16:20;10.00;1.00
26051;DHT22;13825;53.496;10.020;2023-03-14T01:18:48;9.90;1.00
26051;DHT22;13825;53.496;10.020;2023-03-14T01:21:18;10.00;99.90
26051;DHT22;13825;53.496;10.020;2023-03-14T01:23:47;10.00;99.90
26051;DHT22;13825;53.496;10.020;2023-03-14T01:26:15;10.00;99.90
26051;DHT22;13825;53.496;10.020;2023-03-14T01:28:45;10.00;99.90
26051;DHT22;13825;53.496;10.020;2023-03-14T01:31:12;10.00;99.90
26051;DHT22;13825;53.496;10.020;2023-03-14T01:33:39;10.10;99.90
26051;DHT22;13825;53.496;10.020;2023-03-14T01:36:07;10.10;99.90
26051;DHT22;13825;53.496;10.020;2023-03-14T01:38:38;10.10;99.90
26051;DHT22;13825;53.496;10.020;2023-03-14T01:41:06;10.00;99.90
26051;DHT22;13825;53.496;10.020;2023-03-14T01:43:33;10.00;99.90
26051;DHT22;13825;53.496;10.020;2023-03-14T01:46:26;9.90;99.90
26051;DHT22;13825;53.496;10.020;2023-03-14T01:48:59;9.90;1.00
26051;DHT22;13825;53.496;10.020;2023-03-14T01:51:33;9.90;1.00
26051;DHT22;13825;53.496;10.020;2023-03-14T01:54:08;9.90;1.00
26051;DHT22;13825;53.496;10.020;2023-03-14T01:56:37;9.90;1.00
26051;DHT22;13825;53.496;10.020;2023-03-14T01:59:07;9.90;1.00
26051;DHT22;13825;53.496;10.020;2023-03-14T02:01:34;10.00;1.00
26051;DHT22;13825;53.496;10.020;2023-03-14T02:04:05;9.90;1.00
26051;DHT22;13825;53.496;10.020;2023-03-14T02:06:39;9.90;1.00
26051;DHT22;13825;53.496;10.020;2023-03-14T02:09:08;9.90;99.90
26051;DHT22;13825;53.496;10.020;2023-03-14T02:11:35;10.00;99.90
26051;DHT22;13825;53.496;10.020;2023-03-14T02:14:03;10.00;99.90
26051;DHT22;13825;53.496;10.020;2023-03-14T02:16:31;10.00;99.90
26051;DHT22;13825;53.496;10.020;2023-03-14T02:18:58;10.00;99.90
26051;DHT22;13825;53.496;10.020;2023-03-14T02:21:31;9.90;99.90
26051;DHT22;13825;53.496;10.020;2023-03-14T02:24:07;9.90;99.90
26051;DHT22;13825;53.496;10.020;2023-03-14T02:26:38;9.90;99.90
26051;DHT22;13825;53.496;10.020;2023-03-14T02:29:08;9.90;99.90
26051;DHT22;13825;53.496;10.020;2023-03-14T02:31:35;9.90;99.90
26051;DHT22;13825;53.496;10.020;2023-03-14T02:34:02;9.90;54.60
26051;DHT22;13825;53.496;10.020;2023-03-14T02:36:30;9.80;97.20
26051;DHT22;13825;53.496;10.020;2023-03-14T02:39:04;9.90;1.00
26051;DHT22;13825;53.496;10.020;2023-03-14T02:41:33;9.80;29.30
26051;DHT22;13825;53.496;10.020;2023-03-14T02:44:00;9.80;23.50
26051;DHT22;13825;53.496;10.020;2023-03-14T02:46:29;9.90;1.00
26051;DHT22;13825;53.496;10.020;2023-03-14T02:48:58;10.00;2.30
26051;DHT22;13825;53.496;10.020;2023-03-14T02:51:26;10.00;1.00
26051;DHT22;13825;53.496;10.020;2023-03-14T02:53:54;10.00;1.00
26051;DHT22;13825;53.496;10.020;2023-03-14T02:56:21;9.90;1.00
26051;DHT22;13825;53.496;10.020;2023-03-14T02:58:48;10.00;1.00
26051;DHT22;13825;53.496;10.020;2023-03-14T03:01:15;10.00;1.00
26051;DHT22;13825;53.496;10.020;2023-03-14T03:03:43;10.00;1.00
26051;DHT22;13825;53.496;10.020;2023-03-14T03:06:11;10.00;22.10
26051;DHT22;13825;53.496;10.020;2023-03-14T03:08:41;9.90;24.90
26051;DHT22;13825;53.496;10.020;2023-03-14T03:11:08;10.10;1.00
26051;DHT22;13825;53.496;10.020;2023-03-14T03:13:35;10.10;1.00
26051;DHT22;13825;53.496;10.020;2023-03-14T03:16:02;10.10;1.00
26051;DHT22;13825;53.496;10.020;2023-03-14T03:18:29;10.10;1.00
26051;DHT22;13825;53.496;10.020;2023-03-14T03:21:01;10.10;1.00
26051;DHT22;13825;53.496;10.020;2023-03-14T03:23:29;10.20;1.00
26051;DHT22;13825;53.496;10.020;2023-03-14T03:25:56;10.20;1.00
26051;DHT22;13825;53.496;10.020;2023-03-14T03:28:23;10.30;99.90
26051;DHT22;13825;53.496;10.020;2023-03-14T03:30:50;10.40;99.90
26051;DHT22;13825;53.496;10.020;2023-03-14T03:33:17;10.40;99.90
26051;DHT22;13825;53.496;10.020;2023-03-14T03:35:46;10.40;99.90
26051;DHT22;13825;53.496;10.020;2023-03-14T03:38:15;10.40;99.90
26051;DHT22;13825;53.496;10.020;2023-03-14T03:40:42;10.40;99.90
26051;DHT22;13825;53.496;10.020;2023-03-14T03:43:10;10.40;99.90
26051;DHT22;13825;53.496;10.020;2023-03-14T03:45:36;10.50;99.90
26051;DHT22;13825;53.496;10.020;2023-03-14T03:48:04;10.50;99.90
26051;DHT22;13825;53.496;10.020;2023-03-14T03:50:31;10.50;99.90
26051;DHT22;13825;53.496;10.020;2023-03-14T03:52:58;10.40;99.90
26051;DHT22;13825;53.496;10.020;2023-03-14T03:55:27;10.40;99.90
26051;DHT22;13825;53.496;10.020;2023-03-14T03:57:54;10.30;99.90
26051;DHT22;13825;53.496;10.020;2023-03-14T04:00:21;10.30;99.90
26051;DHT22;13825;53.496;10.020;2023-03-14T04:02:48;10.30;99.90
26051;DHT22;13825;53.496;10.020;2023-03-14T04:05:15;10.30;99.90
26051;DHT22;13825;53.496;10.020;2023-03-14T04:07:42;10.20;99.90
26051;DHT22;13825;53.496;10.020;2023-03-14T04:10:10;10.20;99.90
26051;DHT22;13825;53.496;10.020;2023-03-14T04:12:38;10.20;99.90
26051;DHT22;13825;53.496;10.020;2023-03-14T04:15:06;10.20;99.90
26051;DHT22;13825;53.496;10.020;2023-03-14T04:17:34;10.20;99.90
26051;DHT22;13825;53.496;10.020;2023-03-14T04:20:01;10.20;99.90
26051;DHT22;13825;53.496;10.020;2023-03-14T04:22:28;10.30;99.90
26051;DHT22;13825;53.496;10.020;2023-03-14T04:24:55;10.20;99.90
26051;DHT22;13825;53.496;10.020;2023-03-14T04:27:22;10.20;99.90
26051;DHT22;13825;53.496;10.020;2023-03-14T04:29:51;10.20;99.90
26051;DHT22;13825;53.496;10.020;2023-03-14T04:32:17;10.20;99.90
26051;DHT22;13825;53.496;10.020;2023-03-14T04:34:44;10.20;99.90
26051;DHT22;13825;53.496;10.020;2023-03-14T04:37:11;10.20;99.90
26051;DHT22;13825;53.496;10.020;2023-03-14T04:39:38;10.30;55.70
26051;DHT22;13825;53.496;10.020;2023-03-14T04:42:05;10.30;21.30
26051;DHT22;13825;53.496;10.020;2023-03-14T04:44:32;10.30;1.00
26051;DHT22;13825;53.496;10.020;2023-03-14T04:47:01;10.30;1.00
26051;DHT22;13825;53.496;10.020;2023-03-14T04:49:28;10.30;1.00
26051;DHT22;13825;53.496;10.020;2023-03-14T04:51:55;10.40;1.00
26051;DHT22;13825;53.496;10.020;2023-03-14T04:54:21;10.40;1.00
26051;DHT22;13825;53.496;10.020;2023-03-14T04:56:48;10.40;1.00
26051;DHT22;13825;53.496;10.020;2023-03-14T04:59:15;10.40;1.00
26051;DHT22;13825;53.496;10.020;2023-03-14T05:01:42;10.50;1.00
26051;DHT22;13825;53.496;10.020;2023-03-14T05:04:10;10.40;1.00
26051;DHT22;13825;53.496;10.020;2023-03-14T05:06:37;10.40;1.00
26051;DHT22;13825;53.496;10.020;2023-03-14T05:09:05;10.40;1.00
26051;DHT22;13825;53.496;10.020;2023-03-14T05:11:32;10.40;1.00
26051;DHT22;13825;53.496;10.020;2023-03-14T05:14:00;10.40;1.00
26051;DHT22;13825;53.496;10.020;2023-03-14T05:16:27;10.40;1.00
26051;DHT22;13825;53.496;10.020;2023-03-14T05:18:54;10.30;1.00
26051;DHT22;13825;53.496;10.020;2023-03-14T05:21:23;10.30;1.00
26051;DHT22;13825;53.496;10.020;2023-03-14T05:23:50;10.30;1.00
26051;DHT22;13825;53.496;10.020;2023-03-14T05:26:17;10.20;1.00
26051;DHT22;13825;53.496;10.020;2023-03-14T05:28:44;10.20;1.00
26051;DHT22;13825;53.496;10.020;2023-03-14T05:31:11;10.30;1.00
26051;DHT22;13825;53.496;10.020;2023-03-14T05:33:38;10.30;1.00
26051;DHT22;13825;53.496;10.020;2023-03-14T05:36:07;10.30;1.00
26051;DHT22;13825;53.496;10.020;2023-03-14T05:38:35;10.30;1.00
26051;DHT22;13825;53.496;10.020;2023-03-14T05:41:03;10.30;1.00
26051;DHT22;13825;53.496;10.020;2023-03-14T05:43:30;10.30;1.00
26051;DHT22;13825;53.496;10.020;2023-03-14T05:45:57;10.20;1.00
26051;DHT22;13825;53.496;10.020;2023-03-14T05:48:24;10.20;7.70
26051;DHT22;13825;53.496;10.020;2023-03-14T05:50:54;10.30;5.90
26051;DHT22;13825;53.496;10.020;2023-03-14T05:53:21;10.20;1.00
26051;DHT22;13825;53.496;10.020;2023-03-14T05:55:53;10.20;4.70
26051;DHT22;13825;53.496;10.020;2023-03-14T05:58:20;10.20;25.60
26051;DHT22;13825;53.496;10.020;2023-03-14T06:00:47;10.20;99.90
26051;DHT22;13825;53.496;10.020;2023-03-14T06:03:14;10.10;99.90
26051;DHT22;13825;53.496;10.020;2023-03-14T06:05:41;10.00;99.90
26051;DHT22;13825;53.496;10.020;2023-03-14T06:08:08;10.10;99.90
26051;DHT22;13825;53.496;10.020;2023-03-14T06:10:36;10.00;99.90
26051;DHT22;13825;53.496;10.020;2023-03-14T06:13:04;10.10;99.90
26051;DHT22;13825;53.496;10.020;2023-03-14T06:15:31;10.10;99.90
26051;DHT22;13825;53.496;10.020;2023-03-14T06:18:00;10.10;99.90
26051;DHT22;13825;53.496;10.020;2023-03-14T06:20:27;10.10;46.10
26051;DHT22;13825;53.496;10.020;2023-03-14T06:22:55;10.10;25.70
26051;DHT22;13825;53.496;10.020;2023-03-14T06:25:21;10.10;2.20
26051;DHT22;13825;53.496;10.020;2023-03-14T06:27:48;10.20;1.00
26051;DHT22;13825;53.496;10.020;2023-03-14T06:30:17;10.20;1.00
26051;DHT22;13825;53.496;10.020;2023-03-14T06:32:44;10.10;1.00
26051;DHT22;13825;53.496;10.020;2023-03-14T06:35:11;10.10;1.00
26051;DHT22;13825;53.496;10.020;2023-03-14T06:37:38;10.10;1.00
26051;DHT22;13825;53.496;10.020;2023-03-14T06:40:06;10.00;1.00
26051;DHT22;13825;53.496;10.020;2023-03-14T06:42:34;10.00;1.00
26051;DHT22;13825;53.496;10.020;2023-03-14T06:45:01;10.00;1.00
26051;DHT22;13825;53.496;10.020;2023-03-14T06:47:30;10.00;1.00
26051;DHT22;13825;53.496;10.020;2023-03-14T06:49:57;10.10;1.00
26051;DHT22;13825;53.496;10.020;2023-03-14T06:52:24;10.00;1.00
26051;DHT22;13825;53.496;10.020;2023-03-14T06:54:51;10.20;1.00
26051;DHT22;13825;53.496;10.020;2023-03-14T06:57:18;10.30;1.00
26051;DHT22;13825;53.496;10.020;2023-03-14T06:59:45;10.40;1.00
26051;DHT22;13825;53.496;10.020;2023-03-14T07:02:13;10.40;99.90
26051;DHT22;13825;53.496;10.020;2023-03-14T07:04:41;10.30;1.00
26051;DHT22;13825;53.496;10.020;2023-03-14T07:07:09;10.30;99.90
26051;DHT22;13825;53.496;10.020;2023-03-14T07:09:36;10.30;99.90
26051;DHT22;13825;53.496;10.020;2023-03-14T07:12:03;10.30;99.90
26051;DHT22;13825;53.496;10.020;2023-03-14T07:14:31;10.20;1.00
26051;DHT22;13825;53.496;10.020;2023-03-14T07:16:58;10.20;1.00
26051;DHT22;13825;53.496;10.020;2023-03-14T07:19:25;10.10;1.00
26051;DHT22;13825;53.496;10.020;2023-03-14T07:21:54;10.10;1.00
26051;DHT22;13825;53.496;10.020;2023-03-14T07:24:21;10.20;1.00
26051;DHT22;13825;53.496;10.020;2023-03-14T07:26:48;10.20;1.00
26051;DHT22;13825;53.496;10.020;2023-03-14T07:29:15;10.30;1.00
26051;DHT22;13825;53.496;10.020;2023-03-14T07:31:42;10.20;1.00
26051;DHT22;13825;53.496;10.020;2023-03-14T07:34:09;10.30;1.00
26051;DHT22;13825;53.496;10.020;2023-03-14T07:36:36;10.50;1.00
26051;DHT22;13825;53.496;10.020;2023-03-14T07:39:04;10.50;99.90
26051;DHT22;13825;53.496;10.020;2023-03-14T07:41:32;10.60;99.90
26051;DHT22;13825;53.496;10.020;2023-03-14T07:43:59;10.70;99.90
26051;DHT22;13825;53.496;10.020;2023-03-14T07:46:26;10.80;99.90
26051;DHT22;13825;53.496;10.020;2023-03-14T07:48:53;11.00;99.90
26051;DHT22;13825;53.496;10.020;2023-03-14T07:51:20;11.00;99.90
26051;DHT22;13825;53.496;10.020;2023-03-14T07:53:48;11.00;99.90
26051;DHT22;13825;53.496;10.020;2023-03-14T07:56:17;10.80;99.90
26051;DHT22;13825;53.496;10.020;2023-03-14T07:58:44;10.80;99.90
26051;DHT22;13825;53.496;10.020;2023-03-14T08:01:11;10.80;99.90
26051;DHT22;13825;53.496;10.020;2023-03-14T08:03:38;10.70;99.90
26051;DHT22;13825;53.496;10.020;2023-03-14T08:06:06;10.60;99.90
26051;DHT22;13825;53.496;10.020;2023-03-14T08:08:33;10.60;99.90
26051;DHT22;13825;53.496;10.020;2023-03-14T08:11:03;10.50;99.90
26051;DHT22;13825;53.496;10.020;2023-03-14T08:13:31;10.60;99.90
26051;DHT22;13825;53.496;10.020;2023-03-14T08:15:59;10.70;99.90
26051;DHT22;13825;53.496;10.020;2023-03-14T08:18:26;10.80;99.90
26051;DHT22;13825;53.496;10.020;2023-03-14T08:20:53;11.00;99.90
26051;DHT22;13825;53.496;10.020;2023-03-14T08:23:20;11.20;99.90
26051;DHT22;13825;53.496;10.020;2023-03-14T08:25:49;11.40;99.90
26051;DHT22;13825;53.496;10.020;2023-03-14T08:28:16;11.40;99.90
26051;DHT22;13825;53.496;10.020;2023-03-14T08:30:45;11.30;99.90
26051;DHT22;13825;53.496;10.020;2023-03-14T08:33:12;11.20;99.90
26051;DHT22;13825;53.496;10.020;2023-03-14T08:35:39;11.20;99.90
26051;DHT22;13825;53.496;10.020;2023-03-14T08:38:06;11.20;99.90
26051;DHT22;13825;53.496;10.020;2023-03-14T08:40:33;11.30;99.90
26051;DHT22;13825;53.496;10.020;2023-03-14T08:43:00;11.30;99.90
26051;DHT22;13825;53.496;10.020;2023-03-14T08:45:30;11.30;99.90
26051;DHT22;13825;53.496;10.020;2023-03-14T08:47:59;11.30;99.90
26051;DHT22;13825;53.496;10.020;2023-03-14T08:50:26;11.40;99.90
26051;DHT22;13825;53.496;10.020;2023-03-14T08:52:53;11.50;99.90
26051;DHT22;13825;53.496;10.020;2023-03-14T08:55:20;11.40;99.90
26051;DHT22;13825;53.496;10.020;2023-03-14T08:57:54;11.40;99.90
26051;DHT22;13825;53.496;10.020;2023-03-14T09:00:22;11.40;99.90
26051;DHT22;13825;53.496;10.020;2023-03-14T09:02:49;11.40;99.90
26051;DHT22;13825;53.496;10.020;2023-03-14T09:05:18;11.30;99.90
26051;DHT22;13825;53.496;10.020;2023-03-14T09:07:45;11.30;99.90
26051;DHT22;13825;53.496;10.020;2023-03-14T09:10:12;11.30;99.90
26051;DHT22;13825;53.496;10.020;2023-03-14T09:12:39;11.40;99.90
26051;DHT22;13825;53.496;10.020;2023-03-14T09:15:08;11.60;99.90
26051;DHT22;13825;53.496;10.020;2023-03-14T09:17:35;11.80;99.90
26051;DHT22;13825;53.496;10.020;2023-03-14T09:20:03;11.90;99.90
26051;DHT22;13825;53.496;10.020;2023-03-14T09:22:34;11.70;99.90
26051;DHT22;13825;53.496;10.020;2023-03-14T09:25:02;11.60;99.90
26051;DHT22;13825;53.496;10.020;2023-03-14T09:27:30;11.40;99.90
26051;DHT22;13825;53.496;10.020;2023-03-14T09:30:02;11.20;99.90
26051;DHT22;13825;53.496;10.020;2023-03-14T09:32:31;11.00;99.90
26051;DHT22;13825;53.496;10.020;2023-03-14T09:34:58;11.00;99.90
26051;DHT22;13825;53.496;10.020;2023-03-14T09:37:25;11.10;99.90
26051;DHT22;13825;53.496;10.020;2023-03-14T09:39:54;11.10;99.90
26051;DHT22;13825;53.496;10.020;2023-03-14T09:42:23;11.20;99.90
26051;DHT22;13825;53.496;10.020;2023-03-14T09:44:55;11.10;99.90
26051;DHT22;13825;53.496;10.020;2023-03-14T09:47:23;10.90;99.90
26051;DHT22;13825;53.496;10.020;2023-03-14T09:49:51;10.60;99.90
26051;DHT22;13825;53.496;10.020;2023-03-14T09:52:22;10.30;99.90
26051;DHT22;13825;53.496;10.020;2023-03-14T09:54:52;10.20;99.90
26051;DHT22;13825;53.496;10.020;2023-03-14T09:57:25;9.90;99.90
26051;DHT22;13825;53.496;10.020;2023-03-14T09:59:56;9.80;99.90
26051;DHT22;13825;53.496;10.020;2023-03-14T10:02:25;9.60;99.90
26051;DHT22;13825;53.496;10.020;2023-03-14T10:04:55;9.50;99.90
26051;DHT22;13825;53.496;10.020;2023-03-14T10:07:28;9.10;99.90
26051;DHT22;13825;53.496;10.020;2023-03-14T10:09:55;8.40;99.90
26051;DHT22;13825;53.496;10.020;2023-03-14T10:12:32;8.10;99.90
26051;DHT22;13825;53.496;10.020;2023-03-14T10:15:03;7.80;99.90
26051;DHT22;13825;53.496;10.020;2023-03-14T10:17:38;7.80;99.90
26051;DHT22;13825;53.496;10.020;2023-03-14T10:20:07;7.60;99.90
26051;DHT22;13825;53.496;10.020;2023-03-14T10:22:41;7.50;99.90
26051;DHT22;13825;53.496;10.020;2023-03-14T10:25:26;7.40;99.90
26051;DHT22;13825;53.496;10.020;2023-03-14T10:27:55;7.30;99.90
26051;DHT22;13825;53.496;10.020;2023-03-14T10:30:34;7.30;99.90
26051;DHT22;13825;53.496;10.020;2023-03-14T10:33:20;7.10;99.90
26051;DHT22;13825;53.496;10.020;2023-03-14T10:35:52;7.00;99.90
26051;DHT22;13825;53.496;10.020;2023-03-14T10:38:22;6.90;99.90
26051;DHT22;13825;53.496;10.020;2023-03-14T10:40:52;7.00;99.90
26051;DHT22;13825;53.496;10.020;2023-03-14T10:43:26;6.90;99.90
26051;DHT22;13825;53.496;10.020;2023-03-14T10:45:55;6.80;99.90
26051;DHT22;13825;53.496;10.020;2023-03-14T10:48:29;6.70;99.90
26051;DHT22;13825;53.496;10.020;2023-03-14T10:50:57;6.70;99.90
26051;DHT22;13825;53.496;10.020;2023-03-14T10:53:24;6.20;99.90
26051;DHT22;13825;53.496;10.020;2023-03-14T10:55:52;5.90;99.90
26051;DHT22;13825;53.496;10.020;2023-03-14T10:58:21;5.90;99.90
26051;DHT22;13825;53.496;10.020;2023-03-14T11:00:56;5.80;99.90
26051;DHT22;13825;53.496;10.020;2023-03-14T11:03:26;5.50;99.90
26051;DHT22;13825;53.496;10.020;2023-03-14T11:05:57;5.50;99.90
26051;DHT22;13825;53.496;10.020;2023-03-14T11:08:31;5.40;99.90
26051;DHT22;13825;53.496;10.020;2023-03-14T11:11:08;5.40;99.90
26051;DHT22;13825;53.496;10.020;2023-03-14T11:13:40;5.40;99.90
26051;DHT22;13825;53.496;10.020;2023-03-14T11:16:18;5.60;99.90
26051;DHT22;13825;53.496;10.020;2023-03-14T11:19:07;5.30;99.90
26051;DHT22;13825;53.496;10.020;2023-03-14T11:21:42;5.10;99.90
26051;DHT22;13825;53.496;10.020;2023-03-14T11:24:25;4.90;99.90
26051;DHT22;13825;53.496;10.020;2023-03-14T11:26:59;4.90;99.90
26051;DHT22;13825;53.496;10.020;2023-03-14T11:29:36;4.90;99.90
26051;DHT22;13825;53.496;10.020;2023-03-14T11:32:13;4.90;99.90
26051;DHT22;13825;53.496;10.020;2023-03-14T11:34:46;4.90;99.90
26051;DHT22;13825;53.496;10.020;2023-03-14T11:37:22;4.80;99.90
26051;DHT22;13825;53.496;10.020;2023-03-14T11:39:56;4.70;99.90
26051;DHT22;13825;53.496;10.020;2023-03-14T11:42:27;4.70;99.90
26051;DHT22;13825;53.496;10.020;2023-03-14T11:44:56;4.80;99.90
26051;DHT22;13825;53.496;10.020;2023-03-14T11:47:28;4.80;99.90
26051;DHT22;13825;53.496;10.020;2023-03-14T11:49:59;4.70;99.90
26051;DHT22;13825;53.496;10.020;2023-03-14T11:52:32;4.70;99.90
26051;DHT22;13825;53.496;10.020;2023-03-14T11:55:05;4.90;99.90
26051;DHT22;13825;53.496;10.020;2023-03-14T11:57:34;5.00;99.90
26051;DHT22;13825;53.496;10.020;2023-03-14T12:00:05;5.20;99.90
26051;DHT22;13825;53.496;10.020;2023-03-14T12:02:47;5.20;99.90
26051;DHT22;13825;53.496;10.020;2023-03-14T12:05:35;5.30;99.90
26051;DHT22;13825;53.496;10.020;2023-03-14T12:08:22;5.40;99.90
26051;DHT22;13825;53.496;10.020;2023-03-14T12:10:55;5.40;99.90
26051;DHT22;13825;53.496;10.020;2023-03-14T12:13:28;5.20;99.90
26051;DHT22;13825;53.496;10.020;2023-03-14T12:15:57;5.10;99.90
26051;DHT22;13825;53.496;10.020;2023-03-14T12:18:29;5.00;99.90
26051;DHT22;13825;53.496;10.020;2023-03-14T12:20:59;4.90;99.90
26051;DHT22;13825;53.496;10.020;2023-03-14T12:23:28;5.00;99.90
26051;DHT22;13825;53.496;10.020;2023-03-14T12:26:15;5.10;99.90
26051;DHT22;13825;53.496;10.020;2023-03-14T12:28:44;5.20;99.90
26051;DHT22;13825;53.496;10.020;2023-03-14T12:31:36;5.20;99.90
26051;DHT22;13825;53.496;10.020;2023-03-14T12:34:26;5.30;99.90
26051;DHT22;13825;53.496;10.020;2023-03-14T12:37:01;5.20;99.90
26051;DHT22;13825;53.496;10.020;2023-03-14T12:39:37;5.30;99.90
26051;DHT22;13825;53.496;10.020;2023-03-14T12:42:11;5.40;99.90
26051;DHT22;13825;53.496;10.020;2023-03-14T12:44:44;5.50;99.90
26051;DHT22;13825;53.496;10.020;2023-03-14T12:47:42;5.50;99.90
26051;DHT22;13825;53.496;10.020;2023-03-14T12:50:20;5.60;99.90
26051;DHT22;13825;53.496;10.020;2023-03-14T12:53:05;5.60;99.90
26051;DHT22;13825;53.496;10.020;2023-03-14T12:55:43;5.60;99.90
26051;DHT22;13825;53.496;10.020;2023-03-14T12:58:17;5.60;99.90
26051;DHT22;13825;53.496;10.020;2023-03-14T13:00:54;5.60;99.90
26051;DHT22;13825;53.496;10.020;2023-03-14T13:03:25;5.50;99.90
26051;DHT22;13825;53.496;10.020;2023-03-14T13:05:56;5.40;99.90
26051;DHT22;13825;53.496;10.020;2023-03-14T13:08:39;5.10;99.90
26051;DHT22;13825;53.496;10.020;2023-03-14T13:11:10;4.80;99.90
26051;DHT22;13825;53.496;10.020;2023-03-14T13:13:41;4.70;99.90
26051;DHT22;13825;53.496;10.020;2023-03-14T13:16:15;4.70;99.90
26051;DHT22;13825;53.496;10.020;2023-03-14T13:18:43;4.80;99.90
26051;DHT22;13825;53.496;10.020;2023-03-14T13:21:15;5.00;99.90
26051;DHT22;13825;53.496;10.020;2023-03-14T13:23:56;5.10;99.90
26051;DHT22;13825;53.496;10.020;2023-03-14T13:26:25;5.30;99.90
26051;DHT22;13825;53.496;10.020;2023-03-14T13:28:58;5.50;99.90
26051;DHT22;13825;53.496;10.020;2023-03-14T13:31:26;5.70;99.90
26051;DHT22;13825;53.496;10.020;2023-03-14T13:34:00;5.90;99.90
26051;DHT22;13825;53.496;10.020;2023-03-14T13:36:28;5.90;99.90
26051;DHT22;13825;53.496;10.020;2023-03-14T13:38:57;6.00;99.90
26051;DHT22;13825;53.496;10.020;2023-03-14T13:41:24;6.00;99.90
26051;DHT22;13825;53.496;10.020;2023-03-14T13:43:52;6.10;99.90
26051;DHT22;13825;53.496;10.020;2023-03-14T13:46:27;6.10;97.30
26051;DHT22;13825;53.496;10.020;2023-03-14T13:48:57;5.90;89.00
26051;DHT22;13825;53.496;10.020;2023-03-14T13:51:25;5.90;1.00
26051;DHT22;13825;53.496;10.020;2023-03-14T13:53:56;5.90;1.00
26051;DHT22;13825;53.496;10.020;2023-03-14T13:56:26;5.90;1.00
26051;DHT22;13825;53.496;10.020;2023-03-14T13:58:54;6.20;1.00
26051;DHT22;13825;53.496;10.020;2023-03-14T14:01:23;6.30;1.00
26051;DHT22;13825;53.496;10.020;2023-03-14T14:03:53;6.20;1.00
26051;DHT22;13825;53.496;10.020;2023-03-14T14:06:26;6.30;1.00
26051;DHT22;13825;53.496;10.020;2023-03-14T14:08:55;6.40;1.00
26051;DHT22;13825;53.496;10.020;2023-03-14T14:11:33;6.40;1.00
26051;DHT22;13825;53.496;10.020;2023-03-14T14:14:03;6.20;1.00
26051;DHT22;13825;53.496;10.020;2023-03-14T14:16:31;6.10;1.00
26051;DHT22;13825;53.496;10.020;2023-03-14T14:18:59;6.00;1.00
26051;DHT22;13825;53.496;10.020;2023-03-14T14:21:26;5.90;1.00
26051;DHT22;13825;53.496;10.020;2023-03-14T14:23:54;6.00;1.00
26051;DHT22;13825;53.496;10.020;2023-03-14T14:26:22;6.40;1.00
26051;DHT22;13825;53.496;10.020;2023-03-14T14:28:59;6.50;1.00
26051;DHT22;13825;53.496;10.020;2023-03-14T14:31:26;6.80;1.00
26051;DHT22;13825;53.496;10.020;2023-03-14T14:33:54;6.70;1.00
26051;DHT22;13825;53.496;10.020;2023-03-14T14:36:23;6.80;1.00
26051;DHT22;13825;53.496;10.020;2023-03-14T14:38:56;6.80;1.00
26051;DHT22;13825;53.496;10.020;2023-03-14T14:41:29;6.60;1.00
26051;DHT22;13825;53.496;10.020;2023-03-14T14:43:57;6.70;1.00
26051;DHT22;13825;53.496;10.020;2023-03-14T14:46:28;6.60;1.00
26051;DHT22;13825;53.496;10.020;2023-03-14T14:49:01;6.70;99.90
26051;DHT22;13825;53.496;10.020;2023-03-14T14:51:38;6.60;99.90
26051;DHT22;13825;53.496;10.020;2023-03-14T14:54:14;6.50;99.90
26051;DHT22;13825;53.496;10.020;2023-03-14T14:56:51;6.50;99.90
26051;DHT22;13825;53.496;10.020;2023-03-14T14:59:22;6.30;99.90
26051;DHT22;13825;53.496;10.020;2023-03-14T15:01:50;6.40;99.90
26051;DHT22;13825;53.496;10.020;2023-03-14T15:04:21;6.30;99.90
26051;DHT22;13825;53.496;10.020;2023-03-14T15:06:49;6.50;99.90
26051;DHT22;13825;53.496;10.020;2023-03-14T15:09:19;6.20;99.90
26051;DHT22;13825;53.496;10.020;2023-03-14T15:11:46;6.00;51.90
26051;DHT22;13825;53.496;10.020;2023-03-14T15:14:15;6.40;54.10
26051;DHT22;13825;53.496;10.020;2023-03-14T15:16:42;6.40;68.10
26051;DHT22;13825;53.496;10.020;2023-03-14T15:19:19;6.20;60.40
26051;DHT22;13825;53.496;10.020;2023-03-14T15:21:47;6.10;61.80
26051;DHT22;13825;53.496;10.020;2023-03-14T15:24:14;6.00;74.20
26051;DHT22;13825;53.496;10.020;2023-03-14T15:26:41;6.00;72.80
26051;DHT22;13825;53.496;10.020;2023-03-14T15:29:10;6.10;71.70
26051;DHT22;13825;53.496;10.020;2023-03-14T15:31:40;6.70;79.20
26051;DHT22;13825;53.496;10.020;2023-03-14T15:34:09;6.90;68.20
26051;DHT22;13825;53.496;10.020;2023-03-14T15:36:36;7.30;71.00
26051;DHT22;13825;53.496;10.020;2023-03-14T15:39:06;7.50;50.10
26051;DHT22;13825;53.496;10.020;2023-03-14T15:41:34;7.70;62.30
26051;DHT22;13825;53.496;10.020;2023-03-14T15:44:01;7.70;50.80